sensor_id;sensor_type;location;lat;lon;timestamp;P1;durP1;ratioP1;P2;durP2;ratioP2
12348;SDS011;5974;42.710;27.258;2022-11-15T00:00:59;21.73;;;15.17;;
12348;SDS011;5974;42.710;27.258;2022-11-15T00:03:26;23.17;;;14.40;;
12348;SDS011;5974;42.710;27.258;2022-11-15T00:05:53;23.17;;;14.13;;
12348;SDS011;5974;42.710;27.258;2022-11-15T00:08:19;23.83;;;14.83;;
12348;SDS011;5974;42.710;27.258;2022-11-15T00:10:53;23.53;;;14.57;;
12348;SDS011;5974;42.710;27.258;2022-11-15T00:13:20;21.40;;;13.70;;
12348;SDS011;5974;42.710;27.258;2022-11-15T00:15:46;20.60;;;13.33;;
12348;SDS011;5974;42.710;27.258;2022-11-15T00:18:14;20.93;;;14.23;;
12348;SDS011;5974;42.710;27.258;2022-11-15T00:20:41;23.97;;;15.20;;
12348;SDS011;5974;42.710;27.258;2022-11-15T00:23:08;25.50;;;14.33;;
12348;SDS011;5974;42.710;27.258;2022-11-15T00:25:34;26.23;;;14.87;;
12348;SDS011;5974;42.710;27.258;2022-11-15T00:28:01;23.27;;;13.70;;
12348;SDS011;5974;42.710;27.258;2022-11-15T00:30:28;20.47;;;13.87;;
12348;SDS011;5974;42.710;27.258;2022-11-15T00:32:55;21.20;;;14.73;;
12348;SDS011;5974;42.710;27.258;2022-11-15T00:35:23;19.83;;;13.40;;
12348;SDS011;5974;42.710;27.258;2022-11-15T00:37:49;20.93;;;13.27;;
12348;SDS011;5974;42.710;27.258;2022-11-15T00:40:16;22.13;;;13.20;;
12348;SDS011;5974;42.710;27.258;2022-11-15T00:42:42;20.47;;;13.40;;
12348;SDS011;5974;42.710;27.258;2022-11-15T00:45:09;18.00;;;12.20;;
12348;SDS011;5974;42.710;27.258;2022-11-15T00:47:36;18.43;;;12.00;;
12348;SDS011;5974;42.710;27.258;2022-11-15T00:50:03;20.07;;;13.37;;
12348;SDS011;5974;42.710;27.258;2022-11-15T00:52:31;18.07;;;11.83;;
12348;SDS011;5974;42.710;27.258;2022-11-15T00:54:57;17.37;;;11.80;;
12348;SDS011;5974;42.710;27.258;2022-11-15T00:57:24;20.03;;;12.07;;
12348;SDS011;5974;42.710;27.258;2022-11-15T00:59:51;16.53;;;11.23;;
12348;SDS011;5974;42.710;27.258;2022-11-15T01:02:17;15.17;;;10.63;;
12348;SDS011;5974;42.710;27.258;2022-11-15T01:04:44;15.43;;;10.33;;
12348;SDS011;5974;42.710;27.258;2022-11-15T01:07:10;14.30;;;9.93;;
12348;SDS011;5974;42.710;27.258;2022-11-15T01:09:38;14.33;;;10.33;;
12348;SDS011;5974;42.710;27.258;2022-11-15T01:12:05;15.23;;;9.70;;
12348;SDS011;5974;42.710;27.258;2022-11-15T01:14:32;10.60;;;8.43;;
12348;SDS011;5974;42.710;27.258;2022-11-15T01:16:58;11.87;;;7.77;;
12348;SDS011;5974;42.710;27.258;2022-11-15T01:19:25;10.33;;;7.90;;
12348;SDS011;5974;42.710;27.258;2022-11-15T01:21:51;10.53;;;7.20;;
12348;SDS011;5974;42.710;27.258;2022-11-15T01:27:24;9.60;;;6.87;;
12348;SDS011;5974;42.710;27.258;2022-11-15T01:29:51;9.30;;;7.10;;
12348;SDS011;5974;42.710;27.258;2022-11-15T01:32:17;10.47;;;8.43;;
12348;SDS011;5974;42.710;27.258;2022-11-15T01:34:44;12.47;;;8.40;;
12348;SDS011;5974;42.710;27.258;2022-11-15T01:37:10;10.83;;;8.47;;
12348;SDS011;5974;42.710;27.258;2022-11-15T01:39:37;12.57;;;7.93;;
12348;SDS011;5974;42.710;27.258;2022-11-15T01:42:04;13.80;;;8.80;;
12348;SDS011;5974;42.710;27.258;2022-11-15T01:47:20;11.73;;;8.57;;
12348;SDS011;5974;42.710;27.258;2022-11-15T01:49:52;14.20;;;9.43;;
12348;SDS011;5974;42.710;27.258;2022-11-15T01:52:20;13.80;;;9.63;;
12348;SDS011;5974;42.710;27.258;2022-11-15T01:54:48;13.17;;;9.57;;
12348;SDS011;5974;42.710;27.258;2022-11-15T01:57:15;14.57;;;9.73;;
12348;SDS011;5974;42.710;27.258;2022-11-15T01:59:42;12.70;;;9.40;;
12348;SDS011;5974;42.710;27.258;2022-11-15T02:02:09;13.07;;;9.43;;
12348;SDS011;5974;42.710;27.258;2022-11-15T02:04:37;12.47;;;8.77;;
12348;SDS011;5974;42.710;27.258;2022-11-15T02:07:05;12.03;;;9.00;;
12348;SDS011;5974;42.710;27.258;2022-11-15T02:09:35;12.87;;;9.27;;
12348;SDS011;5974;42.710;27.258;2022-11-15T02:12:02;13.37;;;8.50;;
12348;SDS011;5974;42.710;27.258;2022-11-15T02:14:29;10.70;;;7.80;;
12348;SDS011;5974;42.710;27.258;2022-11-15T02:16:58;14.00;;;9.20;;
12348;SDS011;5974;42.710;27.258;2022-11-15T02:19:33;13.60;;;9.43;;
12348;SDS011;5974;42.710;27.258;2022-11-15T02:22:10;12.60;;;9.70;;
12348;SDS011;5974;42.710;27.258;2022-11-15T02:25:01;12.20;;;8.60;;
12348;SDS011;5974;42.710;27.258;2022-11-15T02:27:35;13.57;;;9.40;;
12348;SDS011;5974;42.710;27.258;2022-11-15T02:30:18;12.40;;;9.37;;
12348;SDS011;5974;42.710;27.258;2022-11-15T02:32:47;11.73;;;8.83;;
12348;SDS011;5974;42.710;27.258;2022-11-15T02:35:18;12.67;;;9.07;;
12348;SDS011;5974;42.710;27.258;2022-11-15T02:37:46;11.77;;;8.77;;
12348;SDS011;5974;42.710;27.258;2022-11-15T02:40:16;12.13;;;9.00;;
12348;SDS011;5974;42.710;27.258;2022-11-15T02:42:45;11.13;;;8.70;;
12348;SDS011;5974;42.710;27.258;2022-11-15T02:45:35;11.07;;;8.23;;
12348;SDS011;5974;42.710;27.258;2022-11-15T02:48:02;12.67;;;8.67;;
12348;SDS011;5974;42.710;27.258;2022-11-15T02:50:30;11.60;;;8.60;;
12348;SDS011;5974;42.710;27.258;2022-11-15T02:52:58;11.27;;;8.07;;
12348;SDS011;5974;42.710;27.258;2022-11-15T02:55:25;12.37;;;8.57;;
12348;SDS011;5974;42.710;27.258;2022-11-15T02:57:52;8.67;;;7.53;;
12348;SDS011;5974;42.710;27.258;2022-11-15T03:00:22;10.80;;;7.50;;
12348;SDS011;5974;42.710;27.258;2022-11-15T03:03:04;10.53;;;8.10;;
12348;SDS011;5974;42.710;27.258;2022-11-15T03:05:34;9.80;;;7.73;;
12348;SDS011;5974;42.710;27.258;2022-11-15T03:08:03;11.03;;;8.10;;
12348;SDS011;5974;42.710;27.258;2022-11-15T03:10:36;10.33;;;8.00;;
12348;SDS011;5974;42.710;27.258;2022-11-15T03:13:07;9.27;;;6.93;;
12348;SDS011;5974;42.710;27.258;2022-11-15T03:15:38;7.93;;;6.80;;
12348;SDS011;5974;42.710;27.258;2022-11-15T03:18:10;9.10;;;7.07;;
12348;SDS011;5974;42.710;27.258;2022-11-15T03:20:39;10.83;;;7.20;;
12348;SDS011;5974;42.710;27.258;2022-11-15T03:23:08;8.23;;;6.93;;
12348;SDS011;5974;42.710;27.258;2022-11-15T03:25:35;8.37;;;6.90;;
12348;SDS011;5974;42.710;27.258;2022-11-15T03:28:03;9.03;;;7.07;;
12348;SDS011;5974;42.710;27.258;2022-11-15T03:30:31;8.00;;;6.23;;
12348;SDS011;5974;42.710;27.258;2022-11-15T03:32:59;9.93;;;6.63;;
12348;SDS011;5974;42.710;27.258;2022-11-15T03:35:29;8.67;;;6.90;;
12348;SDS011;5974;42.710;27.258;2022-11-15T03:37:57;7.87;;;6.43;;
12348;SDS011;5974;42.710;27.258;2022-11-15T03:40:27;7.37;;;6.27;;
12348;SDS011;5974;42.710;27.258;2022-11-15T03:42:58;8.50;;;6.30;;
12348;SDS011;5974;42.710;27.258;2022-11-15T03:45:27;7.17;;;5.97;;
12348;SDS011;5974;42.710;27.258;2022-11-15T03:47:58;7.60;;;5.93;;
12348;SDS011;5974;42.710;27.258;2022-11-15T03:50:27;7.27;;;6.37;;
12348;SDS011;5974;42.710;27.258;2022-11-15T03:52:54;7.70;;;6.60;;
12348;SDS011;5974;42.710;27.258;2022-11-15T03:55:21;7.03;;;6.33;;
12348;SDS011;5974;42.710;27.258;2022-11-15T03:57:50;7.07;;;6.37;;
12348;SDS011;5974;42.710;27.258;2022-11-15T04:00:17;8.07;;;6.30;;
12348;SDS011;5974;42.710;27.258;2022-11-15T04:02:44;6.73;;;5.80;;
12348;SDS011;5974;42.710;27.258;2022-11-15T04:05:10;6.60;;;5.70;;
12348;SDS011;5974;42.710;27.258;2022-11-15T04:07:38;6.83;;;5.83;;
12348;SDS011;5974;42.710;27.258;2022-11-15T04:10:05;6.73;;;5.93;;
12348;SDS011;5974;42.710;27.258;2022-11-15T04:12:33;7.97;;;6.20;;
12348;SDS011;5974;42.710;27.258;2022-11-15T04:15:00;6.93;;;6.20;;
12348;SDS011;5974;42.710;27.258;2022-11-15T04:17:33;7.73;;;6.13;;
12348;SDS011;5974;42.710;27.258;2022-11-15T04:20:00;7.50;;;5.90;;
12348;SDS011;5974;42.710;27.258;2022-11-15T04:22:45;6.83;;;6.13;;
12348;SDS011;5974;42.710;27.258;2022-11-15T04:25:29;7.00;;;6.30;;
12348;SDS011;5974;42.710;27.258;2022-11-15T04:27:56;7.93;;;6.47;;
12348;SDS011;5974;42.710;27.258;2022-11-15T04:30:22;7.93;;;6.37;;
12348;SDS011;5974;42.710;27.258;2022-11-15T04:32:49;8.23;;;6.80;;
12348;SDS011;5974;42.710;27.258;2022-11-15T04:35:15;7.83;;;7.03;;
12348;SDS011;5974;42.710;27.258;2022-11-15T04:37:42;8.30;;;6.63;;
12348;SDS011;5974;42.710;27.258;2022-11-15T04:40:09;7.07;;;5.60;;
12348;SDS011;5974;42.710;27.258;2022-11-15T04:42:36;6.37;;;5.70;;
12348;SDS011;5974;42.710;27.258;2022-11-15T04:45:03;6.50;;;5.90;;
12348;SDS011;5974;42.710;27.258;2022-11-15T04:47:29;6.90;;;5.67;;
12348;SDS011;5974;42.710;27.258;2022-11-15T04:49:56;7.47;;;5.97;;
12348;SDS011;5974;42.710;27.258;2022-11-15T04:52:22;7.53;;;5.90;;
12348;SDS011;5974;42.710;27.258;2022-11-15T04:54:49;6.30;;;5.47;;
12348;SDS011;5974;42.710;27.258;2022-11-15T04:57:17;6.10;;;5.50;;
12348;SDS011;5974;42.710;27.258;2022-11-15T04:59:44;7.17;;;5.93;;
12348;SDS011;5974;42.710;27.258;2022-11-15T05:02:10;6.50;;;5.73;;
12348;SDS011;5974;42.710;27.258;2022-11-15T05:04:37;7.13;;;5.73;;
12348;SDS011;5974;42.710;27.258;2022-11-15T05:07:02;8.43;;;6.23;;
12348;SDS011;5974;42.710;27.258;2022-11-15T05:09:30;7.47;;;6.00;;
12348;SDS011;5974;42.710;27.258;2022-11-15T05:11:56;9.83;;;6.93;;
12348;SDS011;5974;42.710;27.258;2022-11-15T05:14:24;7.23;;;6.10;;
12348;SDS011;5974;42.710;27.258;2022-11-15T05:16:51;7.77;;;6.27;;
12348;SDS011;5974;42.710;27.258;2022-11-15T05:19:17;7.60;;;6.23;;
12348;SDS011;5974;42.710;27.258;2022-11-15T05:21:44;8.67;;;6.00;;
12348;SDS011;5974;42.710;27.258;2022-11-15T05:24:11;7.30;;;6.17;;
12348;SDS011;5974;42.710;27.258;2022-11-15T05:26:37;8.00;;;6.10;;
12348;SDS011;5974;42.710;27.258;2022-11-15T05:29:04;7.57;;;6.37;;
12348;SDS011;5974;42.710;27.258;2022-11-15T05:31:32;7.73;;;6.90;;
12348;SDS011;5974;42.710;27.258;2022-11-15T05:33:58;6.17;;;5.57;;
12348;SDS011;5974;42.710;27.258;2022-11-15T05:36:27;8.97;;;7.20;;
12348;SDS011;5974;42.710;27.258;2022-11-15T05:38:55;14.30;;;10.27;;
12348;SDS011;5974;42.710;27.258;2022-11-15T05:41:24;20.53;;;13.53;;
12348;SDS011;5974;42.710;27.258;2022-11-15T05:43:52;22.83;;;16.80;;
12348;SDS011;5974;42.710;27.258;2022-11-15T05:46:19;21.30;;;13.37;;
12348;SDS011;5974;42.710;27.258;2022-11-15T05:48:48;21.13;;;13.43;;
12348;SDS011;5974;42.710;27.258;2022-11-15T05:51:15;15.47;;;11.73;;
12348;SDS011;5974;42.710;27.258;2022-11-15T05:53:42;16.50;;;11.93;;
12348;SDS011;5974;42.710;27.258;2022-11-15T05:56:09;14.17;;;11.70;;
12348;SDS011;5974;42.710;27.258;2022-11-15T05:58:36;13.90;;;10.37;;
12348;SDS011;5974;42.710;27.258;2022-11-15T06:01:03;13.37;;;10.50;;
12348;SDS011;5974;42.710;27.258;2022-11-15T06:03:29;12.10;;;9.57;;
12348;SDS011;5974;42.710;27.258;2022-11-15T06:05:57;12.87;;;10.63;;
12348;SDS011;5974;42.710;27.258;2022-11-15T06:08:25;16.40;;;10.53;;
12348;SDS011;5974;42.710;27.258;2022-11-15T06:10:51;16.07;;;12.17;;
12348;SDS011;5974;42.710;27.258;2022-11-15T06:13:18;17.97;;;13.20;;
12348;SDS011;5974;42.710;27.258;2022-11-15T06:15:44;18.50;;;12.67;;
12348;SDS011;5974;42.710;27.258;2022-11-15T06:18:11;14.77;;;10.27;;
12348;SDS011;5974;42.710;27.258;2022-11-15T06:20:38;12.63;;;9.00;;
12348;SDS011;5974;42.710;27.258;2022-11-15T06:23:06;14.60;;;9.17;;
12348;SDS011;5974;42.710;27.258;2022-11-15T06:25:32;12.53;;;8.77;;
12348;SDS011;5974;42.710;27.258;2022-11-15T06:27:59;14.83;;;9.70;;
12348;SDS011;5974;42.710;27.258;2022-11-15T06:30:25;10.97;;;9.07;;
12348;SDS011;5974;42.710;27.258;2022-11-15T06:32:58;13.03;;;10.70;;
12348;SDS011;5974;42.710;27.258;2022-11-15T06:35:25;15.07;;;11.23;;
12348;SDS011;5974;42.710;27.258;2022-11-15T06:37:51;17.67;;;13.30;;
12348;SDS011;5974;42.710;27.258;2022-11-15T06:40:19;15.73;;;12.03;;
12348;SDS011;5974;42.710;27.258;2022-11-15T06:42:46;16.20;;;12.43;;
12348;SDS011;5974;42.710;27.258;2022-11-15T06:45:13;32.37;;;22.57;;
12348;SDS011;5974;42.710;27.258;2022-11-15T06:47:43;30.20;;;21.50;;
12348;SDS011;5974;42.710;27.258;2022-11-15T06:50:10;18.90;;;12.77;;
12348;SDS011;5974;42.710;27.258;2022-11-15T06:52:37;12.33;;;10.27;;
12348;SDS011;5974;42.710;27.258;2022-11-15T06:55:04;17.70;;;11.17;;
12348;SDS011;5974;42.710;27.258;2022-11-15T06:57:32;19.47;;;12.27;;
12348;SDS011;5974;42.710;27.258;2022-11-15T07:00:11;24.17;;;16.07;;
12348;SDS011;5974;42.710;27.258;2022-11-15T07:02:38;15.23;;;10.93;;
12348;SDS011;5974;42.710;27.258;2022-11-15T07:05:05;15.17;;;10.97;;
12348;SDS011;5974;42.710;27.258;2022-11-15T07:07:32;11.33;;;8.87;;
12348;SDS011;5974;42.710;27.258;2022-11-15T07:09:58;9.17;;;8.20;;
12348;SDS011;5974;42.710;27.258;2022-11-15T07:12:25;11.13;;;9.30;;
12348;SDS011;5974;42.710;27.258;2022-11-15T07:14:53;14.63;;;9.63;;
12348;SDS011;5974;42.710;27.258;2022-11-15T07:17:20;11.23;;;9.03;;
12348;SDS011;5974;42.710;27.258;2022-11-15T07:19:46;16.40;;;11.33;;
12348;SDS011;5974;42.710;27.258;2022-11-15T07:22:13;13.37;;;9.43;;
12348;SDS011;5974;42.710;27.258;2022-11-15T07:24:40;9.73;;;8.67;;
12348;SDS011;5974;42.710;27.258;2022-11-15T07:27:06;8.80;;;7.67;;
12348;SDS011;5974;42.710;27.258;2022-11-15T07:29:33;9.10;;;7.97;;
12348;SDS011;5974;42.710;27.258;2022-11-15T07:32:01;11.20;;;8.10;;
12348;SDS011;5974;42.710;27.258;2022-11-15T07:34:27;8.93;;;7.70;;
12348;SDS011;5974;42.710;27.258;2022-11-15T07:36:54;9.80;;;8.57;;
12348;SDS011;5974;42.710;27.258;2022-11-15T07:39:21;11.27;;;8.80;;
12348;SDS011;5974;42.710;27.258;2022-11-15T07:41:47;14.23;;;10.07;;
12348;SDS011;5974;42.710;27.258;2022-11-15T07:44:14;16.13;;;10.23;;
12348;SDS011;5974;42.710;27.258;2022-11-15T07:46:41;19.73;;;12.70;;
12348;SDS011;5974;42.710;27.258;2022-11-15T07:49:09;21.27;;;13.97;;
12348;SDS011;5974;42.710;27.258;2022-11-15T07:51:35;17.23;;;11.17;;
12348;SDS011;5974;42.710;27.258;2022-11-15T07:54:02;15.90;;;11.07;;
12348;SDS011;5974;42.710;27.258;2022-11-15T07:56:29;12.20;;;9.30;;
12348;SDS011;5974;42.710;27.258;2022-11-15T07:58:55;10.23;;;8.70;;
12348;SDS011;5974;42.710;27.258;2022-11-15T08:01:22;11.30;;;9.13;;
12348;SDS011;5974;42.710;27.258;2022-11-15T08:03:49;16.03;;;9.17;;
12348;SDS011;5974;42.710;27.258;2022-11-15T08:06:17;11.27;;;9.23;;
12348;SDS011;5974;42.710;27.258;2022-11-15T08:08:43;10.87;;;9.13;;
12348;SDS011;5974;42.710;27.258;2022-11-15T08:11:10;13.00;;;8.93;;
12348;SDS011;5974;42.710;27.258;2022-11-15T08:13:36;15.93;;;9.93;;
12348;SDS011;5974;42.710;27.258;2022-11-15T08:16:04;12.93;;;8.87;;
12348;SDS011;5974;42.710;27.258;2022-11-15T08:18:31;11.23;;;9.07;;
12348;SDS011;5974;42.710;27.258;2022-11-15T08:20:58;9.40;;;8.07;;
12348;SDS011;5974;42.710;27.258;2022-11-15T08:23:26;12.03;;;8.40;;
12348;SDS011;5974;42.710;27.258;2022-11-15T08:25:58;9.47;;;8.13;;
12348;SDS011;5974;42.710;27.258;2022-11-15T08:28:25;13.00;;;11.13;;
12348;SDS011;5974;42.710;27.258;2022-11-15T08:30:51;8.83;;;7.93;;
12348;SDS011;5974;42.710;27.258;2022-11-15T08:33:18;10.57;;;7.43;;
12348;SDS011;5974;42.710;27.258;2022-11-15T08:35:46;6.60;;;5.77;;
12348;SDS011;5974;42.710;27.258;2022-11-15T08:38:13;5.63;;;5.07;;
12348;SDS011;5974;42.710;27.258;2022-11-15T08:40:41;7.80;;;7.03;;
12348;SDS011;5974;42.710;27.258;2022-11-15T08:43:08;6.40;;;5.77;;
12348;SDS011;5974;42.710;27.258;2022-11-15T08:45:35;8.57;;;6.27;;
12348;SDS011;5974;42.710;27.258;2022-11-15T08:48:02;6.27;;;5.30;;
12348;SDS011;5974;42.710;27.258;2022-11-15T08:50:28;6.63;;;5.50;;
12348;SDS011;5974;42.710;27.258;2022-11-15T08:52:55;7.47;;;5.50;;
12348;SDS011;5974;42.710;27.258;2022-11-15T08:55:21;6.50;;;5.90;;
12348;SDS011;5974;42.710;27.258;2022-11-15T08:57:50;4.97;;;4.53;;
12348;SDS011;5974;42.710;27.258;2022-11-15T09:00:16;6.37;;;5.03;;
12348;SDS011;5974;42.710;27.258;2022-11-15T09:02:44;6.97;;;5.47;;
12348;SDS011;5974;42.710;27.258;2022-11-15T09:05:11;9.10;;;6.17;;
12348;SDS011;5974;42.710;27.258;2022-11-15T09:07:38;5.70;;;5.20;;
12348;SDS011;5974;42.710;27.258;2022-11-15T09:10:05;6.63;;;5.87;;
12348;SDS011;5974;42.710;27.258;2022-11-15T09:12:31;6.13;;;5.53;;
12348;SDS011;5974;42.710;27.258;2022-11-15T09:14:59;7.20;;;5.57;;
12348;SDS011;5974;42.710;27.258;2022-11-15T09:17:26;6.63;;;5.50;;
12348;SDS011;5974;42.710;27.258;2022-11-15T09:19:53;6.30;;;5.70;;
12348;SDS011;5974;42.710;27.258;2022-11-15T09:22:19;6.43;;;5.50;;
12348;SDS011;5974;42.710;27.258;2022-11-15T09:24:46;6.03;;;5.43;;
12348;SDS011;5974;42.710;27.258;2022-11-15T09:27:13;5.73;;;5.23;;
12348;SDS011;5974;42.710;27.258;2022-11-15T09:29:39;6.10;;;5.50;;
12348;SDS011;5974;42.710;27.258;2022-11-15T09:32:07;6.87;;;5.40;;
12348;SDS011;5974;42.710;27.258;2022-11-15T09:34:34;5.77;;;5.27;;
12348;SDS011;5974;42.710;27.258;2022-11-15T09:37:00;5.93;;;5.40;;
12348;SDS011;5974;42.710;27.258;2022-11-15T09:39:27;6.10;;;5.50;;
12348;SDS011;5974;42.710;27.258;2022-11-15T09:41:58;6.37;;;5.77;;
12348;SDS011;5974;42.710;27.258;2022-11-15T09:47:24;9.03;;;6.73;;
12348;SDS011;5974;42.710;27.258;2022-11-15T09:49:53;7.27;;;5.90;;
12348;SDS011;5974;42.710;27.258;2022-11-15T09:52:20;10.27;;;7.47;;
12348;SDS011;5974;42.710;27.258;2022-11-15T09:54:47;7.47;;;4.97;;
12348;SDS011;5974;42.710;27.258;2022-11-15T09:57:17;6.80;;;6.10;;
12348;SDS011;5974;42.710;27.258;2022-11-15T09:59:47;7.63;;;6.93;;
12348;SDS011;5974;42.710;27.258;2022-11-15T10:02:19;9.73;;;7.50;;
12348;SDS011;5974;42.710;27.258;2022-11-15T10:04:49;9.40;;;7.40;;
12348;SDS011;5974;42.710;27.258;2022-11-15T10:07:18;7.33;;;6.23;;
12348;SDS011;5974;42.710;27.258;2022-11-15T10:09:48;6.40;;;5.60;;
12348;SDS011;5974;42.710;27.258;2022-11-15T10:12:17;6.10;;;5.50;;
12348;SDS011;5974;42.710;27.258;2022-11-15T10:14:43;6.77;;;6.17;;
12348;SDS011;5974;42.710;27.258;2022-11-15T10:17:15;8.20;;;6.70;;
12348;SDS011;5974;42.710;27.258;2022-11-15T10:19:48;9.00;;;8.20;;
12348;SDS011;5974;42.710;27.258;2022-11-15T10:22:21;9.70;;;8.80;;
12348;SDS011;5974;42.710;27.258;2022-11-15T10:24:50;9.27;;;8.30;;
12348;SDS011;5974;42.710;27.258;2022-11-15T10:27:18;9.63;;;8.43;;
12348;SDS011;5974;42.710;27.258;2022-11-15T10:29:46;9.63;;;8.53;;
12348;SDS011;5974;42.710;27.258;2022-11-15T10:32:15;8.37;;;7.57;;
12348;SDS011;5974;42.710;27.258;2022-11-15T10:34:42;9.80;;;8.77;;
12348;SDS011;5974;42.710;27.258;2022-11-15T10:37:08;13.40;;;9.07;;
12348;SDS011;5974;42.710;27.258;2022-11-15T10:39:36;9.57;;;8.57;;
12348;SDS011;5974;42.710;27.258;2022-11-15T10:42:16;11.27;;;9.93;;
12348;SDS011;5974;42.710;27.258;2022-11-15T10:44:44;10.03;;;9.13;;
12348;SDS011;5974;42.710;27.258;2022-11-15T10:47:22;10.23;;;9.23;;
12348;SDS011;5974;42.710;27.258;2022-11-15T10:49:53;9.07;;;8.00;;
12348;SDS011;5974;42.710;27.258;2022-11-15T10:52:20;9.37;;;7.77;;
12348;SDS011;5974;42.710;27.258;2022-11-15T10:54:49;9.00;;;8.10;;
12348;SDS011;5974;42.710;27.258;2022-11-15T10:57:18;11.13;;;9.13;;
12348;SDS011;5974;42.710;27.258;2022-11-15T10:59:46;9.87;;;8.83;;
12348;SDS011;5974;42.710;27.258;2022-11-15T11:02:29;13.03;;;10.30;;
12348;SDS011;5974;42.710;27.258;2022-11-15T11:04:56;9.67;;;8.77;;
12348;SDS011;5974;42.710;27.258;2022-11-15T11:07:23;9.77;;;8.87;;
12348;SDS011;5974;42.710;27.258;2022-11-15T11:09:57;14.17;;;10.30;;
12348;SDS011;5974;42.710;27.258;2022-11-15T11:12:27;10.93;;;9.77;;
12348;SDS011;5974;42.710;27.258;2022-11-15T11:14:54;11.03;;;9.80;;
12348;SDS011;5974;42.710;27.258;2022-11-15T11:17:23;11.50;;;9.97;;
12348;SDS011;5974;42.710;27.258;2022-11-15T11:19:56;12.00;;;10.67;;
12348;SDS011;5974;42.710;27.258;2022-11-15T11:22:26;10.00;;;9.00;;
12348;SDS011;5974;42.710;27.258;2022-11-15T11:25:02;11.10;;;10.00;;
12348;SDS011;5974;42.710;27.258;2022-11-15T11:27:34;11.83;;;10.00;;
12348;SDS011;5974;42.710;27.258;2022-11-15T11:30:06;9.80;;;8.60;;
12348;SDS011;5974;42.710;27.258;2022-11-15T11:32:39;10.13;;;9.13;;
12348;SDS011;5974;42.710;27.258;2022-11-15T11:35:09;9.57;;;8.53;;
12348;SDS011;5974;42.710;27.258;2022-11-15T11:37:39;10.77;;;9.67;;
12348;SDS011;5974;42.710;27.258;2022-11-15T11:42:50;11.77;;;10.57;;
12348;SDS011;5974;42.710;27.258;2022-11-15T11:45:24;10.67;;;9.57;;
12348;SDS011;5974;42.710;27.258;2022-11-15T11:48:01;10.97;;;9.83;;
12348;SDS011;5974;42.710;27.258;2022-11-15T11:50:29;9.93;;;8.93;;
12348;SDS011;5974;42.710;27.258;2022-11-15T11:52:57;9.30;;;8.40;;
12348;SDS011;5974;42.710;27.258;2022-11-15T11:55:26;11.13;;;9.93;;
12348;SDS011;5974;42.710;27.258;2022-11-15T11:58:03;12.00;;;9.53;;
12348;SDS011;5974;42.710;27.258;2022-11-15T12:00:31;12.13;;;9.60;;
12348;SDS011;5974;42.710;27.258;2022-11-15T12:03:03;11.63;;;10.17;;
12348;SDS011;5974;42.710;27.258;2022-11-15T12:05:34;10.33;;;9.20;;
12348;SDS011;5974;42.710;27.258;2022-11-15T12:08:04;11.63;;;9.47;;
12348;SDS011;5974;42.710;27.258;2022-11-15T12:10:31;12.07;;;9.13;;
12348;SDS011;5974;42.710;27.258;2022-11-15T12:13:02;10.20;;;9.20;;
12348;SDS011;5974;42.710;27.258;2022-11-15T12:15:31;10.30;;;9.30;;
12348;SDS011;5974;42.710;27.258;2022-11-15T12:17:59;11.07;;;9.43;;
12348;SDS011;5974;42.710;27.258;2022-11-15T12:20:26;11.90;;;8.87;;
12348;SDS011;5974;42.710;27.258;2022-11-15T12:22:55;10.23;;;8.93;;
12348;SDS011;5974;42.710;27.258;2022-11-15T12:25:25;10.27;;;9.20;;
12348;SDS011;5974;42.710;27.258;2022-11-15T12:27:55;9.00;;;8.07;;
12348;SDS011;5974;42.710;27.258;2022-11-15T12:30:25;10.70;;;8.73;;
12348;SDS011;5974;42.710;27.258;2022-11-15T12:32:53;15.07;;;9.07;;
12348;SDS011;5974;42.710;27.258;2022-11-15T12:35:24;12.27;;;8.57;;
12348;SDS011;5974;42.710;27.258;2022-11-15T12:37:51;12.53;;;9.30;;
12348;SDS011;5974;42.710;27.258;2022-11-15T12:40:23;13.30;;;9.23;;
12348;SDS011;5974;42.710;27.258;2022-11-15T12:43:03;9.27;;;8.37;;
12348;SDS011;5974;42.710;27.258;2022-11-15T12:45:32;10.50;;;9.40;;
12348;SDS011;5974;42.710;27.258;2022-11-15T12:50:53;11.03;;;9.93;;
12348;SDS011;5974;42.710;27.258;2022-11-15T12:53:26;11.87;;;10.50;;
12348;SDS011;5974;42.710;27.258;2022-11-15T12:56:08;12.37;;;11.13;;
12348;SDS011;5974;42.710;27.258;2022-11-15T12:58:43;11.07;;;9.97;;
12348;SDS011;5974;42.710;27.258;2022-11-15T13:01:49;11.27;;;10.17;;
12348;SDS011;5974;42.710;27.258;2022-11-15T13:04:07;10.60;;;9.43;;
12348;SDS011;5974;42.710;27.258;2022-11-15T13:06:37;11.47;;;9.80;;
12348;SDS011;5974;42.710;27.258;2022-11-15T13:09:49;10.83;;;9.67;;
12348;SDS011;5974;42.710;27.258;2022-11-15T13:11:52;11.53;;;9.60;;
12348;SDS011;5974;42.710;27.258;2022-11-15T13:17:12;11.57;;;10.33;;
12348;SDS011;5974;42.710;27.258;2022-11-15T13:19:42;15.80;;;10.60;;
12348;SDS011;5974;42.710;27.258;2022-11-15T13:22:10;16.00;;;10.30;;
12348;SDS011;5974;42.710;27.258;2022-11-15T13:24:56;11.40;;;10.30;;
12348;SDS011;5974;42.710;27.258;2022-11-15T13:27:23;13.93;;;11.53;;
12348;SDS011;5974;42.710;27.258;2022-11-15T13:29:49;13.43;;;11.43;;
12348;SDS011;5974;42.710;27.258;2022-11-15T13:32:17;11.47;;;10.37;;
12348;SDS011;5974;42.710;27.258;2022-11-15T13:34:45;13.10;;;11.27;;
12348;SDS011;5974;42.710;27.258;2022-11-15T13:37:12;12.43;;;10.87;;
12348;SDS011;5974;42.710;27.258;2022-11-15T13:39:39;15.00;;;10.90;;
12348;SDS011;5974;42.710;27.258;2022-11-15T13:42:13;17.73;;;10.63;;
12348;SDS011;5974;42.710;27.258;2022-11-15T13:44:40;14.83;;;11.30;;
12348;SDS011;5974;42.710;27.258;2022-11-15T13:47:21;12.27;;;11.07;;
12348;SDS011;5974;42.710;27.258;2022-11-15T13:49:51;13.07;;;11.23;;
12348;SDS011;5974;42.710;27.258;2022-11-15T13:52:18;12.30;;;10.57;;
12348;SDS011;5974;42.710;27.258;2022-11-15T13:54:46;12.53;;;10.77;;
12348;SDS011;5974;42.710;27.258;2022-11-15T13:57:14;11.37;;;10.17;;
12348;SDS011;5974;42.710;27.258;2022-11-15T13:59:46;13.07;;;10.03;;
12348;SDS011;5974;42.710;27.258;2022-11-15T14:02:13;14.07;;;10.40;;
12348;SDS011;5974;42.710;27.258;2022-11-15T14:04:46;13.17;;;9.70;;
12348;SDS011;5974;42.710;27.258;2022-11-15T14:07:16;11.90;;;10.70;;
12348;SDS011;5974;42.710;27.258;2022-11-15T14:09:45;13.73;;;11.37;;
12348;SDS011;5974;42.710;27.258;2022-11-15T14:12:25;12.13;;;10.83;;
12348;SDS011;5974;42.710;27.258;2022-11-15T14:14:52;12.33;;;10.77;;
12348;SDS011;5974;42.710;27.258;2022-11-15T14:17:20;13.10;;;11.10;;
12348;SDS011;5974;42.710;27.258;2022-11-15T14:19:50;14.43;;;12.23;;
12348;SDS011;5974;42.710;27.258;2022-11-15T14:22:18;17.37;;;12.53;;
12348;SDS011;5974;42.710;27.258;2022-11-15T14:24:47;18.30;;;14.17;;
12348;SDS011;5974;42.710;27.258;2022-11-15T14:27:30;19.33;;;13.33;;
12348;SDS011;5974;42.710;27.258;2022-11-15T14:29:57;17.67;;;14.03;;
12348;SDS011;5974;42.710;27.258;2022-11-15T14:32:24;25.07;;;14.90;;
12348;SDS011;5974;42.710;27.258;2022-11-15T14:34:55;19.37;;;14.63;;
12348;SDS011;5974;42.710;27.258;2022-11-15T14:37:23;23.50;;;14.47;;
12348;SDS011;5974;42.710;27.258;2022-11-15T14:39:50;17.57;;;13.40;;
12348;SDS011;5974;42.710;27.258;2022-11-15T14:42:17;16.37;;;13.57;;
12348;SDS011;5974;42.710;27.258;2022-11-15T14:44:43;22.13;;;13.07;;
12348;SDS011;5974;42.710;27.258;2022-11-15T14:47:10;24.43;;;13.30;;
12348;SDS011;5974;42.710;27.258;2022-11-15T14:49:37;17.93;;;13.03;;
12348;SDS011;5974;42.710;27.258;2022-11-15T14:52:10;19.27;;;12.83;;
12348;SDS011;5974;42.710;27.258;2022-11-15T14:54:40;17.60;;;12.83;;
12348;SDS011;5974;42.710;27.258;2022-11-15T14:57:06;17.33;;;13.43;;
12348;SDS011;5974;42.710;27.258;2022-11-15T14:59:33;23.60;;;15.27;;
12348;SDS011;5974;42.710;27.258;2022-11-15T15:01:59;36.67;;;21.17;;